sensor_id;sensor_type;location;lat;lon;timestamp;P1;durP1;ratioP1;P2;durP2;ratioP2
65996;SDS011;52765;52.258;21.052;2022-08-05T00:00:13;6.90;;;4.55;;
65996;SDS011;52765;52.258;21.052;2022-08-05T00:02:41;6.95;;;4.38;;
65996;SDS011;52765;52.258;21.052;2022-08-05T00:05:06;6.65;;;4.30;;
65996;SDS011;52765;52.258;21.052;2022-08-05T00:07:33;6.60;;;4.72;;
65996;SDS011;52765;52.258;21.052;2022-08-05T00:09:59;5.72;;;3.67;;
65996;SDS011;52765;52.258;21.052;2022-08-05T00:12:28;8.07;;;4.70;;
65996;SDS011;52765;52.258;21.052;2022-08-05T00:14:53;6.05;;;4.50;;
65996;SDS011;52765;52.258;21.052;2022-08-05T00:17:19;6.20;;;4.32;;
65996;SDS011;52765;52.258;21.052;2022-08-05T00:19:44;6.28;;;4.10;;
65996;SDS011;52765;52.258;21.052;2022-08-05T00:22:10;5.68;;;4.30;;
65996;SDS011;52765;52.258;21.052;2022-08-05T00:24:35;8.07;;;5.05;;
65996;SDS011;52765;52.258;21.052;2022-08-05T00:27:01;8.73;;;4.90;;
65996;SDS011;52765;52.258;21.052;2022-08-05T00:29:27;6.25;;;4.60;;
65996;SDS011;52765;52.258;21.052;2022-08-05T00:31:53;6.38;;;4.80;;
65996;SDS011;52765;52.258;21.052;2022-08-05T00:34:19;8.52;;;4.95;;
65996;SDS011;52765;52.258;21.052;2022-08-05T00:36:44;10.75;;;4.68;;
65996;SDS011;52765;52.258;21.052;2022-08-05T00:39:10;6.05;;;4.50;;
65996;SDS011;52765;52.258;21.052;2022-08-05T00:41:36;7.30;;;4.82;;
65996;SDS011;52765;52.258;21.052;2022-08-05T00:44:02;8.35;;;4.85;;
65996;SDS011;52765;52.258;21.052;2022-08-05T00:46:28;8.40;;;4.70;;
65996;SDS011;52765;52.258;21.052;2022-08-05T00:48:54;6.38;;;4.40;;
65996;SDS011;52765;52.258;21.052;2022-08-05T00:51:23;9.10;;;4.32;;
65996;SDS011;52765;52.258;21.052;2022-08-05T00:53:48;8.48;;;4.53;;
65996;SDS011;52765;52.258;21.052;2022-08-05T00:56:15;7.88;;;4.47;;
65996;SDS011;52765;52.258;21.052;2022-08-05T00:58:41;7.35;;;4.43;;
65996;SDS011;52765;52.258;21.052;2022-08-05T01:01:08;12.32;;;6.30;;
65996;SDS011;52765;52.258;21.052;2022-08-05T01:03:35;8.32;;;4.90;;
65996;SDS011;52765;52.258;21.052;2022-08-05T01:06:02;8.60;;;4.82;;
65996;SDS011;52765;52.258;21.052;2022-08-05T01:08:29;8.30;;;4.78;;
65996;SDS011;52765;52.258;21.052;2022-08-05T01:11:16;6.65;;;4.78;;
65996;SDS011;52765;52.258;21.052;2022-08-05T01:14:03;12.18;;;4.80;;
65996;SDS011;52765;52.258;21.052;2022-08-05T01:19:21;6.53;;;5.05;;
65996;SDS011;52765;52.258;21.052;2022-08-05T01:22:06;7.80;;;4.75;;
65996;SDS011;52765;52.258;21.052;2022-08-05T01:30:26;6.55;;;4.90;;
65996;SDS011;52765;52.258;21.052;2022-08-05T01:32:53;5.78;;;4.43;;
65996;SDS011;52765;52.258;21.052;2022-08-05T01:35:24;7.68;;;4.97;;
65996;SDS011;52765;52.258;21.052;2022-08-05T01:37:54;7.20;;;4.65;;
65996;SDS011;52765;52.258;21.052;2022-08-05T01:40:22;5.40;;;4.60;;
65996;SDS011;52765;52.258;21.052;2022-08-05T01:42:52;6.45;;;4.70;;
65996;SDS011;52765;52.258;21.052;2022-08-05T01:45:20;6.25;;;4.82;;
65996;SDS011;52765;52.258;21.052;2022-08-05T01:47:48;6.53;;;4.72;;
65996;SDS011;52765;52.258;21.052;2022-08-05T01:50:33;6.28;;;4.55;;
65996;SDS011;52765;52.258;21.052;2022-08-05T01:53:03;5.78;;;4.32;;
65996;SDS011;52765;52.258;21.052;2022-08-05T01:55:33;6.25;;;4.82;;
65996;SDS011;52765;52.258;21.052;2022-08-05T01:58:01;6.18;;;4.90;;
65996;SDS011;52765;52.258;21.052;2022-08-05T02:00:28;8.30;;;4.65;;
65996;SDS011;52765;52.258;21.052;2022-08-05T02:02:59;7.43;;;4.95;;
65996;SDS011;52765;52.258;21.052;2022-08-05T02:05:30;5.38;;;4.45;;
65996;SDS011;52765;52.258;21.052;2022-08-05T02:07:58;6.35;;;4.75;;
65996;SDS011;52765;52.258;21.052;2022-08-05T02:10:26;6.55;;;4.90;;
65996;SDS011;52765;52.258;21.052;2022-08-05T02:13:07;6.10;;;4.90;;
65996;SDS011;52765;52.258;21.052;2022-08-05T02:15:40;5.17;;;4.40;;
65996;SDS011;52765;52.258;21.052;2022-08-05T02:18:16;7.60;;;5.10;;
65996;SDS011;52765;52.258;21.052;2022-08-05T02:20:48;7.03;;;4.93;;
65996;SDS011;52765;52.258;21.052;2022-08-05T02:23:19;5.47;;;4.53;;
65996;SDS011;52765;52.258;21.052;2022-08-05T02:25:47;6.72;;;4.95;;
65996;SDS011;52765;52.258;21.052;2022-08-05T02:28:15;6.60;;;4.93;;
65996;SDS011;52765;52.258;21.052;2022-08-05T02:30:47;6.93;;;5.18;;
65996;SDS011;52765;52.258;21.052;2022-08-05T02:33:19;9.43;;;5.65;;
65996;SDS011;52765;52.258;21.052;2022-08-05T02:35:46;6.90;;;5.43;;
65996;SDS011;52765;52.258;21.052;2022-08-05T02:38:14;7.68;;;5.65;;
65996;SDS011;52765;52.258;21.052;2022-08-05T02:40:40;5.85;;;5.05;;
65996;SDS011;52765;52.258;21.052;2022-08-05T02:43:10;6.60;;;4.72;;
65996;SDS011;52765;52.258;21.052;2022-08-05T02:45:38;7.70;;;5.50;;
65996;SDS011;52765;52.258;21.052;2022-08-05T02:48:06;7.13;;;5.85;;
65996;SDS011;52765;52.258;21.052;2022-08-05T02:50:32;8.63;;;5.03;;
65996;SDS011;52765;52.258;21.052;2022-08-05T02:53:00;9.98;;;5.25;;
65996;SDS011;52765;52.258;21.052;2022-08-05T02:55:26;7.57;;;5.15;;
65996;SDS011;52765;52.258;21.052;2022-08-05T02:57:54;5.93;;;5.20;;
65996;SDS011;52765;52.258;21.052;2022-08-05T03:00:20;5.90;;;5.30;;
65996;SDS011;52765;52.258;21.052;2022-08-05T03:02:46;6.18;;;4.80;;
65996;SDS011;52765;52.258;21.052;2022-08-05T03:05:13;7.18;;;5.30;;
65996;SDS011;52765;52.258;21.052;2022-08-05T03:07:39;7.78;;;5.50;;
65996;SDS011;52765;52.258;21.052;2022-08-05T03:10:06;7.07;;;5.32;;
65996;SDS011;52765;52.258;21.052;2022-08-05T03:12:33;6.40;;;5.55;;
65996;SDS011;52765;52.258;21.052;2022-08-05T03:15:00;7.57;;;5.20;;
65996;SDS011;52765;52.258;21.052;2022-08-05T03:17:26;6.40;;;5.18;;
65996;SDS011;52765;52.258;21.052;2022-08-05T03:19:52;8.88;;;5.70;;
65996;SDS011;52765;52.258;21.052;2022-08-05T03:22:18;8.60;;;6.78;;
65996;SDS011;52765;52.258;21.052;2022-08-05T03:24:45;8.20;;;5.60;;
65996;SDS011;52765;52.258;21.052;2022-08-05T03:27:12;9.50;;;5.70;;
65996;SDS011;52765;52.258;21.052;2022-08-05T03:29:38;7.88;;;5.45;;
65996;SDS011;52765;52.258;21.052;2022-08-05T03:32:05;7.55;;;5.70;;
65996;SDS011;52765;52.258;21.052;2022-08-05T03:34:32;8.98;;;5.60;;
65996;SDS011;52765;52.258;21.052;2022-08-05T03:36:59;7.22;;;5.78;;
65996;SDS011;52765;52.258;21.052;2022-08-05T03:39:25;7.70;;;5.63;;
65996;SDS011;52765;52.258;21.052;2022-08-05T03:41:50;8.23;;;5.13;;
65996;SDS011;52765;52.258;21.052;2022-08-05T03:44:16;6.47;;;5.53;;
65996;SDS011;52765;52.258;21.052;2022-08-05T03:46:41;9.68;;;6.65;;
65996;SDS011;52765;52.258;21.052;2022-08-05T03:49:07;7.72;;;6.10;;
65996;SDS011;52765;52.258;21.052;2022-08-05T03:51:38;6.72;;;5.85;;
65996;SDS011;52765;52.258;21.052;2022-08-05T03:56:53;9.40;;;6.10;;
65996;SDS011;52765;52.258;21.052;2022-08-05T03:59:20;9.52;;;5.97;;
65996;SDS011;52765;52.258;21.052;2022-08-05T04:01:50;7.15;;;5.78;;
65996;SDS011;52765;52.258;21.052;2022-08-05T04:04:18;7.40;;;5.60;;
65996;SDS011;52765;52.258;21.052;2022-08-05T04:06:45;9.23;;;5.78;;
65996;SDS011;52765;52.258;21.052;2022-08-05T04:09:11;8.40;;;5.93;;
65996;SDS011;52765;52.258;21.052;2022-08-05T04:11:39;8.55;;;5.97;;
65996;SDS011;52765;52.258;21.052;2022-08-05T04:14:07;5.40;;;4.90;;
65996;SDS011;52765;52.258;21.052;2022-08-05T04:16:35;6.75;;;5.57;;
65996;SDS011;52765;52.258;21.052;2022-08-05T04:19:02;6.45;;;5.43;;
65996;SDS011;52765;52.258;21.052;2022-08-05T04:21:28;5.28;;;4.60;;
65996;SDS011;52765;52.258;21.052;2022-08-05T04:23:54;6.65;;;5.15;;
65996;SDS011;52765;52.258;21.052;2022-08-05T04:26:22;5.68;;;5.07;;
65996;SDS011;52765;52.258;21.052;2022-08-05T04:28:48;9.70;;;5.50;;
65996;SDS011;52765;52.258;21.052;2022-08-05T04:31:14;5.57;;;5.03;;
65996;SDS011;52765;52.258;21.052;2022-08-05T04:33:39;7.30;;;5.15;;
65996;SDS011;52765;52.258;21.052;2022-08-05T04:36:05;8.98;;;5.78;;
65996;SDS011;52765;52.258;21.052;2022-08-05T04:38:31;6.80;;;5.18;;
65996;SDS011;52765;52.258;21.052;2022-08-05T04:40:56;6.22;;;5.22;;
65996;SDS011;52765;52.258;21.052;2022-08-05T04:43:22;5.60;;;4.93;;
65996;SDS011;52765;52.258;21.052;2022-08-05T04:45:47;6.80;;;5.03;;
65996;SDS011;52765;52.258;21.052;2022-08-05T04:48:13;7.50;;;5.05;;
65996;SDS011;52765;52.258;21.052;2022-08-05T04:50:39;5.72;;;4.80;;
65996;SDS011;52765;52.258;21.052;2022-08-05T04:53:07;5.93;;;4.90;;
65996;SDS011;52765;52.258;21.052;2022-08-05T04:55:34;6.43;;;4.78;;
65996;SDS011;52765;52.258;21.052;2022-08-05T04:58:07;6.43;;;4.97;;
65996;SDS011;52765;52.258;21.052;2022-08-05T05:00:36;6.53;;;5.35;;
65996;SDS011;52765;52.258;21.052;2022-08-05T05:03:03;5.40;;;4.85;;
65996;SDS011;52765;52.258;21.052;2022-08-05T05:05:29;5.80;;;4.65;;
65996;SDS011;52765;52.258;21.052;2022-08-05T05:07:59;6.47;;;5.40;;
65996;SDS011;52765;52.258;21.052;2022-08-05T05:10:26;9.38;;;5.68;;
65996;SDS011;52765;52.258;21.052;2022-08-05T05:12:52;8.60;;;5.75;;
65996;SDS011;52765;52.258;21.052;2022-08-05T05:15:19;10.15;;;6.53;;
65996;SDS011;52765;52.258;21.052;2022-08-05T05:17:45;10.45;;;6.15;;
65996;SDS011;52765;52.258;21.052;2022-08-05T05:20:11;6.45;;;5.43;;
65996;SDS011;52765;52.258;21.052;2022-08-05T05:22:37;9.23;;;6.20;;
65996;SDS011;52765;52.258;21.052;2022-08-05T05:25:03;11.02;;;6.78;;
65996;SDS011;52765;52.258;21.052;2022-08-05T05:27:30;11.57;;;7.05;;
65996;SDS011;52765;52.258;21.052;2022-08-05T05:29:57;13.68;;;7.05;;
65996;SDS011;52765;52.258;21.052;2022-08-05T05:32:22;10.52;;;6.85;;
65996;SDS011;52765;52.258;21.052;2022-08-05T05:34:48;8.40;;;6.43;;
65996;SDS011;52765;52.258;21.052;2022-08-05T05:37:14;9.77;;;7.55;;
65996;SDS011;52765;52.258;21.052;2022-08-05T05:39:40;7.95;;;5.93;;
65996;SDS011;52765;52.258;21.052;2022-08-05T05:42:06;10.18;;;6.10;;
65996;SDS011;52765;52.258;21.052;2022-08-05T05:44:31;7.95;;;6.88;;
65996;SDS011;52765;52.258;21.052;2022-08-05T05:46:57;9.55;;;7.53;;
65996;SDS011;52765;52.258;21.052;2022-08-05T05:49:23;12.50;;;9.55;;
65996;SDS011;52765;52.258;21.052;2022-08-05T05:51:48;8.40;;;6.28;;
65996;SDS011;52765;52.258;21.052;2022-08-05T05:54:14;10.18;;;6.82;;
65996;SDS011;52765;52.258;21.052;2022-08-05T05:56:41;8.45;;;6.60;;
65996;SDS011;52765;52.258;21.052;2022-08-05T05:59:06;8.35;;;6.40;;
65996;SDS011;52765;52.258;21.052;2022-08-05T06:01:32;10.35;;;7.28;;
65996;SDS011;52765;52.258;21.052;2022-08-05T06:03:59;11.48;;;6.75;;
65996;SDS011;52765;52.258;21.052;2022-08-05T06:06:25;16.13;;;7.25;;
65996;SDS011;52765;52.258;21.052;2022-08-05T06:08:50;8.07;;;6.38;;
65996;SDS011;52765;52.258;21.052;2022-08-05T06:11:15;8.13;;;6.00;;
65996;SDS011;52765;52.258;21.052;2022-08-05T06:13:41;11.93;;;5.80;;
65996;SDS011;52765;52.258;21.052;2022-08-05T06:16:07;6.35;;;5.57;;
65996;SDS011;52765;52.258;21.052;2022-08-05T06:18:32;9.77;;;6.05;;
65996;SDS011;52765;52.258;21.052;2022-08-05T06:20:58;7.57;;;5.43;;
65996;SDS011;52765;52.258;21.052;2022-08-05T06:23:24;12.65;;;5.70;;
65996;SDS011;52765;52.258;21.052;2022-08-05T06:25:50;8.27;;;5.13;;
65996;SDS011;52765;52.258;21.052;2022-08-05T06:28:15;9.57;;;5.30;;
65996;SDS011;52765;52.258;21.052;2022-08-05T06:30:40;6.03;;;5.40;;
65996;SDS011;52765;52.258;21.052;2022-08-05T06:33:06;8.60;;;5.88;;
65996;SDS011;52765;52.258;21.052;2022-08-05T06:35:32;10.93;;;6.05;;
65996;SDS011;52765;52.258;21.052;2022-08-05T06:37:57;10.48;;;5.28;;
65996;SDS011;52765;52.258;21.052;2022-08-05T06:40:23;7.63;;;5.50;;
65996;SDS011;52765;52.258;21.052;2022-08-05T06:42:49;8.63;;;4.95;;
65996;SDS011;52765;52.258;21.052;2022-08-05T06:45:15;8.35;;;4.55;;
65996;SDS011;52765;52.258;21.052;2022-08-05T06:47:40;6.25;;;4.75;;
65996;SDS011;52765;52.258;21.052;2022-08-05T06:50:06;6.68;;;4.45;;
65996;SDS011;52765;52.258;21.052;2022-08-05T06:52:32;6.60;;;4.63;;
65996;SDS011;52765;52.258;21.052;2022-08-05T06:54:57;7.60;;;5.20;;
65996;SDS011;52765;52.258;21.052;2022-08-05T06:57:23;5.35;;;4.47;;
65996;SDS011;52765;52.258;21.052;2022-08-05T06:59:48;6.22;;;4.82;;
65996;SDS011;52765;52.258;21.052;2022-08-05T07:02:14;11.77;;;6.28;;
65996;SDS011;52765;52.258;21.052;2022-08-05T07:04:39;7.22;;;5.22;;
65996;SDS011;52765;52.258;21.052;2022-08-05T07:07:04;6.90;;;5.25;;
65996;SDS011;52765;52.258;21.052;2022-08-05T07:09:30;8.85;;;5.20;;
65996;SDS011;52765;52.258;21.052;2022-08-05T07:11:56;7.30;;;5.05;;
65996;SDS011;52765;52.258;21.052;2022-08-05T07:14:21;13.35;;;5.30;;
65996;SDS011;52765;52.258;21.052;2022-08-05T07:17:05;13.00;;;4.97;;
65996;SDS011;52765;52.258;21.052;2022-08-05T07:19:31;7.70;;;5.20;;
65996;SDS011;52765;52.258;21.052;2022-08-05T07:21:57;6.63;;;4.60;;
65996;SDS011;52765;52.258;21.052;2022-08-05T07:24:23;9.57;;;5.80;;
65996;SDS011;52765;52.258;21.052;2022-08-05T07:26:49;5.53;;;5.03;;
65996;SDS011;52765;52.258;21.052;2022-08-05T07:29:14;5.40;;;4.90;;
65996;SDS011;52765;52.258;21.052;2022-08-05T07:31:40;8.23;;;5.57;;
65996;SDS011;52765;52.258;21.052;2022-08-05T07:34:06;8.77;;;5.40;;
65996;SDS011;52765;52.258;21.052;2022-08-05T07:36:31;6.93;;;5.10;;
65996;SDS011;52765;52.258;21.052;2022-08-05T07:38:59;8.95;;;4.68;;
65996;SDS011;52765;52.258;21.052;2022-08-05T07:41:26;11.18;;;4.97;;
65996;SDS011;52765;52.258;21.052;2022-08-05T07:43:52;9.85;;;4.50;;
65996;SDS011;52765;52.258;21.052;2022-08-05T07:46:19;5.65;;;4.40;;
65996;SDS011;52765;52.258;21.052;2022-08-05T07:48:44;7.72;;;4.53;;
65996;SDS011;52765;52.258;21.052;2022-08-05T07:51:10;9.40;;;4.18;;
65996;SDS011;52765;52.258;21.052;2022-08-05T07:53:41;6.22;;;4.78;;
65996;SDS011;52765;52.258;21.052;2022-08-05T07:56:07;8.80;;;4.20;;
65996;SDS011;52765;52.258;21.052;2022-08-05T07:58:32;6.38;;;4.68;;
65996;SDS011;52765;52.258;21.052;2022-08-05T08:00:58;6.07;;;4.43;;
65996;SDS011;52765;52.258;21.052;2022-08-05T08:03:23;5.25;;;4.18;;
65996;SDS011;52765;52.258;21.052;2022-08-05T08:05:49;8.25;;;4.45;;
65996;SDS011;52765;52.258;21.052;2022-08-05T08:08:18;10.93;;;4.53;;
65996;SDS011;52765;52.258;21.052;2022-08-05T08:10:44;7.70;;;4.50;;
65996;SDS011;52765;52.258;21.052;2022-08-05T08:13:09;4.53;;;3.63;;
65996;SDS011;52765;52.258;21.052;2022-08-05T08:15:35;10.07;;;4.60;;
65996;SDS011;52765;52.258;21.052;2022-08-05T08:18:00;7.45;;;4.45;;
65996;SDS011;52765;52.258;21.052;2022-08-05T08:20:26;6.93;;;3.92;;
65996;SDS011;52765;52.258;21.052;2022-08-05T08:22:52;5.10;;;3.58;;
65996;SDS011;52765;52.258;21.052;2022-08-05T08:25:19;4.85;;;3.85;;
65996;SDS011;52765;52.258;21.052;2022-08-05T08:27:46;7.45;;;4.43;;
65996;SDS011;52765;52.258;21.052;2022-08-05T08:30:12;8.00;;;4.40;;
65996;SDS011;52765;52.258;21.052;2022-08-05T08:32:39;6.28;;;3.85;;
65996;SDS011;52765;52.258;21.052;2022-08-05T08:35:05;6.93;;;4.43;;
65996;SDS011;52765;52.258;21.052;2022-08-05T08:37:32;6.55;;;4.30;;
65996;SDS011;52765;52.258;21.052;2022-08-05T08:39:57;6.30;;;3.95;;
65996;SDS011;52765;52.258;21.052;2022-08-05T08:42:23;5.40;;;4.20;;
65996;SDS011;52765;52.258;21.052;2022-08-05T08:44:50;6.70;;;4.32;;
65996;SDS011;52765;52.258;21.052;2022-08-05T08:47:21;5.70;;;3.50;;
65996;SDS011;52765;52.258;21.052;2022-08-05T08:49:51;4.82;;;4.00;;
65996;SDS011;52765;52.258;21.052;2022-08-05T08:52:22;4.20;;;3.80;;
65996;SDS011;52765;52.258;21.052;2022-08-05T08:54:53;5.30;;;4.07;;
65996;SDS011;52765;52.258;21.052;2022-08-05T08:57:20;6.13;;;4.07;;
65996;SDS011;52765;52.258;21.052;2022-08-05T08:59:45;5.85;;;3.55;;
65996;SDS011;52765;52.258;21.052;2022-08-05T09:02:12;8.93;;;3.92;;
65996;SDS011;52765;52.258;21.052;2022-08-05T09:04:38;7.40;;;3.85;;
65996;SDS011;52765;52.258;21.052;2022-08-05T09:07:04;5.88;;;3.78;;
65996;SDS011;52765;52.258;21.052;2022-08-05T09:09:34;6.25;;;3.70;;
65996;SDS011;52765;52.258;21.052;2022-08-05T09:12:01;7.35;;;3.80;;
65996;SDS011;52765;52.258;21.052;2022-08-05T09:14:27;6.50;;;3.63;;
65996;SDS011;52765;52.258;21.052;2022-08-05T09:16:55;5.60;;;3.85;;
65996;SDS011;52765;52.258;21.052;2022-08-05T09:19:21;4.32;;;3.25;;
65996;SDS011;52765;52.258;21.052;2022-08-05T09:21:47;8.45;;;4.10;;
65996;SDS011;52765;52.258;21.052;2022-08-05T09:24:13;7.40;;;3.90;;
65996;SDS011;52765;52.258;21.052;2022-08-05T09:26:38;8.82;;;3.53;;
65996;SDS011;52765;52.258;21.052;2022-08-05T09:29:05;3.83;;;3.25;;
65996;SDS011;52765;52.258;21.052;2022-08-05T09:31:33;5.90;;;3.40;;
65996;SDS011;52765;52.258;21.052;2022-08-05T09:34:00;4.07;;;3.35;;
65996;SDS011;52765;52.258;21.052;2022-08-05T09:39:22;4.40;;;4.00;;
65996;SDS011;52765;52.258;21.052;2022-08-05T09:42:02;4.07;;;3.30;;
65996;SDS011;52765;52.258;21.052;2022-08-05T09:44:38;4.47;;;3.45;;
65996;SDS011;52765;52.258;21.052;2022-08-05T09:47:15;17.33;;;3.45;;
65996;SDS011;52765;52.258;21.052;2022-08-05T09:50:01;3.95;;;3.55;;
65996;SDS011;52765;52.258;21.052;2022-08-05T09:52:28;8.38;;;3.67;;
65996;SDS011;52765;52.258;21.052;2022-08-05T09:55:02;3.90;;;3.50;;
65996;SDS011;52765;52.258;21.052;2022-08-05T10:02:44;7.95;;;4.07;;
65996;SDS011;52765;52.258;21.052;2022-08-05T10:05:26;5.80;;;3.60;;
65996;SDS011;52765;52.258;21.052;2022-08-05T10:07:57;4.28;;;3.65;;
65996;SDS011;52765;52.258;21.052;2022-08-05T10:10:31;7.90;;;3.70;;
65996;SDS011;52765;52.258;21.052;2022-08-05T10:13:02;6.53;;;3.75;;
65996;SDS011;52765;52.258;21.052;2022-08-05T10:15:30;10.80;;;4.00;;
65996;SDS011;52765;52.258;21.052;2022-08-05T10:20:31;4.55;;;3.63;;
65996;SDS011;52765;52.258;21.052;2022-08-05T10:22:58;5.85;;;3.92;;
65996;SDS011;52765;52.258;21.052;2022-08-05T10:25:25;4.05;;;3.40;;
65996;SDS011;52765;52.258;21.052;2022-08-05T10:27:51;7.85;;;3.80;;
65996;SDS011;52765;52.258;21.052;2022-08-05T10:30:18;4.88;;;3.88;;
65996;SDS011;52765;52.258;21.052;2022-08-05T10:32:45;8.25;;;3.50;;
65996;SDS011;52765;52.258;21.052;2022-08-05T10:35:11;6.95;;;3.05;;
65996;SDS011;52765;52.258;21.052;2022-08-05T10:37:37;14.20;;;4.22;;
65996;SDS011;52765;52.258;21.052;2022-08-05T10:40:04;6.75;;;3.40;;
65996;SDS011;52765;52.258;21.052;2022-08-05T10:42:38;11.85;;;3.50;;
65996;SDS011;52765;52.258;21.052;2022-08-05T10:45:11;7.15;;;3.40;;
65996;SDS011;52765;52.258;21.052;2022-08-05T10:47:40;7.35;;;3.72;;
65996;SDS011;52765;52.258;21.052;2022-08-05T10:50:09;8.70;;;3.05;;
65996;SDS011;52765;52.258;21.052;2022-08-05T10:55:16;4.13;;;3.10;;
65996;SDS011;52765;52.258;21.052;2022-08-05T10:57:43;10.38;;;3.55;;
65996;SDS011;52765;52.258;21.052;2022-08-05T11:03:28;5.70;;;3.67;;
65996;SDS011;52765;52.258;21.052;2022-08-05T11:05:42;4.53;;;3.17;;
65996;SDS011;52765;52.258;21.052;2022-08-05T11:08:28;7.25;;;3.75;;
65996;SDS011;52765;52.258;21.052;2022-08-05T11:10:53;4.40;;;3.20;;
65996;SDS011;52765;52.258;21.052;2022-08-05T11:13:39;5.25;;;3.53;;
65996;SDS011;52765;52.258;21.052;2022-08-05T11:16:20;5.43;;;3.40;;
65996;SDS011;52765;52.258;21.052;2022-08-05T11:18:47;5.05;;;3.08;;
65996;SDS011;52765;52.258;21.052;2022-08-05T11:21:31;8.63;;;3.10;;
65996;SDS011;52765;52.258;21.052;2022-08-05T11:23:56;5.07;;;3.35;;
65996;SDS011;52765;52.258;21.052;2022-08-05T11:26:33;5.32;;;3.65;;
65996;SDS011;52765;52.258;21.052;2022-08-05T11:29:03;7.35;;;4.22;;
65996;SDS011;52765;52.258;21.052;2022-08-05T11:31:29;7.15;;;3.63;;
65996;SDS011;52765;52.258;21.052;2022-08-05T11:33:57;7.30;;;3.72;;
65996;SDS011;52765;52.258;21.052;2022-08-05T11:39:11;4.90;;;3.27;;
65996;SDS011;52765;52.258;21.052;2022-08-05T11:41:38;8.73;;;3.90;;
65996;SDS011;52765;52.258;21.052;2022-08-05T11:44:06;6.43;;;3.90;;
65996;SDS011;52765;52.258;21.052;2022-08-05T11:46:46;6.03;;;3.58;;
65996;SDS011;52765;52.258;21.052;2022-08-05T11:49:15;5.72;;;4.55;;
65996;SDS011;52765;52.258;21.052;2022-08-05T11:51:44;6.60;;;3.92;;
65996;SDS011;52765;52.258;21.052;2022-08-05T11:54:22;4.88;;;2.80;;
65996;SDS011;52765;52.258;21.052;2022-08-05T11:56:51;5.13;;;3.78;;
65996;SDS011;52765;52.258;21.052;2022-08-05T11:59:19;5.03;;;3.97;;
65996;SDS011;52765;52.258;21.052;2022-08-05T12:01:53;5.35;;;3.65;;
65996;SDS011;52765;52.258;21.052;2022-08-05T12:07:05;9.10;;;3.70;;
65996;SDS011;52765;52.258;21.052;2022-08-05T12:09:35;8.10;;;3.60;;
65996;SDS011;52765;52.258;21.052;2022-08-05T12:12:06;4.75;;;4.00;;
65996;SDS011;52765;52.258;21.052;2022-08-05T12:14:38;6.22;;;4.70;;
65996;SDS011;52765;52.258;21.052;2022-08-05T12:17:06;5.05;;;3.75;;
65996;SDS011;52765;52.258;21.052;2022-08-05T12:19:39;6.45;;;4.03;;
65996;SDS011;52765;52.258;21.052;2022-08-05T12:22:06;3.63;;;3.30;;
65996;SDS011;52765;52.258;21.052;2022-08-05T12:24:31;3.55;;;3.25;;
65996;SDS011;52765;52.258;21.052;2022-08-05T12:26:57;4.40;;;3.58;;
65996;SDS011;52765;52.258;21.052;2022-08-05T12:29:24;4.00;;;3.55;;
65996;SDS011;52765;52.258;21.052;2022-08-05T12:31:54;8.63;;;3.70;;
65996;SDS011;52765;52.258;21.052;2022-08-05T12:34:28;6.85;;;3.85;;
65996;SDS011;52765;52.258;21.052;2022-08-05T12:36:56;5.60;;;3.65;;
65996;SDS011;52765;52.258;21.052;2022-08-05T12:39:23;5.43;;;4.20;;
65996;SDS011;52765;52.258;21.052;2022-08-05T12:41:50;6.68;;;4.00;;
65996;SDS011;52765;52.258;21.052;2022-08-05T12:44:16;6.30;;;3.72;;
65996;SDS011;52765;52.258;21.052;2022-08-05T12:46:50;4.93;;;3.33;;
65996;SDS011;52765;52.258;21.052;2022-08-05T12:49:17;8.02;;;3.78;;
65996;SDS011;52765;52.258;21.052;2022-08-05T12:51:50;8.20;;;3.90;;
65996;SDS011;52765;52.258;21.052;2022-08-05T12:54:29;4.55;;;3.90;;
65996;SDS011;52765;52.258;21.052;2022-08-05T12:59:23;7.22;;;5.00;;
65996;SDS011;52765;52.258;21.052;2022-08-05T13:01:57;5.30;;;4.20;;
65996;SDS011;52765;52.258;21.052;2022-08-05T13:04:29;5.85;;;3.80;;
65996;SDS011;52765;52.258;21.052;2022-08-05T13:07:03;5.45;;;4.30;;
65996;SDS011;52765;52.258;21.052;2022-08-05T13:09:37;5.38;;;4.03;;
65996;SDS011;52765;52.258;21.052;2022-08-05T13:12:05;8.00;;;3.83;;
65996;SDS011;52765;52.258;21.052;2022-08-05T13:14:36;5.85;;;3.90;;
65996;SDS011;52765;52.258;21.052;2022-08-05T13:17:23;6.28;;;4.35;;
65996;SDS011;52765;52.258;21.052;2022-08-05T13:19:57;4.10;;;3.60;;
65996;SDS011;52765;52.258;21.052;2022-08-05T13:22:25;7.85;;;4.35;;
65996;SDS011;52765;52.258;21.052;2022-08-05T13:24:52;6.55;;;3.83;;
65996;SDS011;52765;52.258;21.052;2022-08-05T13:29:57;7.85;;;3.97;;
65996;SDS011;52765;52.258;21.052;2022-08-05T13:32:23;8.77;;;4.68;;
65996;SDS011;52765;52.258;21.052;2022-08-05T13:34:49;4.57;;;4.05;;
65996;SDS011;52765;52.258;21.052;2022-08-05T13:37:19;6.68;;;3.63;;
65996;SDS011;52765;52.258;21.052;2022-08-05T13:39:46;5.50;;;3.80;;
65996;SDS011;52765;52.258;21.052;2022-08-05T13:42:12;4.82;;;4.25;;
65996;SDS011;52765;52.258;21.052;2022-08-05T13:44:37;5.05;;;3.53;;
65996;SDS011;52765;52.258;21.052;2022-08-05T13:47:03;6.55;;;4.15;;
65996;SDS011;52765;52.258;21.052;2022-08-05T13:49:28;7.07;;;4.50;;
65996;SDS011;52765;52.258;21.052;2022-08-05T13:51:54;5.43;;;4.05;;
65996;SDS011;52765;52.258;21.052;2022-08-05T13:54:20;8.85;;;3.97;;
65996;SDS011;52765;52.258;21.052;2022-08-05T13:56:46;7.15;;;3.92;;
65996;SDS011;52765;52.258;21.052;2022-08-05T13:59:12;5.63;;;4.70;;
65996;SDS011;52765;52.258;21.052;2022-08-05T14:01:38;6.82;;;4.05;;
65996;SDS011;52765;52.258;21.052;2022-08-05T14:04:04;4.28;;;3.80;;
65996;SDS011;52765;52.258;21.052;2022-08-05T14:06:49;6.43;;;3.90;;
65996;SDS011;52765;52.258;21.052;2022-08-05T14:09:14;7.30;;;3.95;;
65996;SDS011;52765;52.258;21.052;2022-08-05T14:11:40;8.15;;;3.97;;
65996;SDS011;52765;52.258;21.052;2022-08-05T14:14:06;9.77;;;4.30;;
65996;SDS011;52765;52.258;21.052;2022-08-05T14:16:35;5.53;;;3.78;;
65996;SDS011;52765;52.258;21.052;2022-08-05T14:19:01;4.18;;;3.53;;
65996;SDS011;52765;52.258;21.052;2022-08-05T14:21:27;8.82;;;4.13;;
65996;SDS011;52765;52.258;21.052;2022-08-05T14:23:53;10.13;;;5.30;;
65996;SDS011;52765;52.258;21.052;2022-08-05T14:26:19;6.90;;;4.10;;
65996;SDS011;52765;52.258;21.052;2022-08-05T14:28:45;5.43;;;3.88;;
65996;SDS011;52765;52.258;21.052;2022-08-05T14:31:10;6.40;;;4.40;;
65996;SDS011;52765;52.258;21.052;2022-08-05T14:33:36;4.75;;;3.88;;
65996;SDS011;52765;52.258;21.052;2022-08-05T14:36:02;6.13;;;4.03;;
65996;SDS011;52765;52.258;21.052;2022-08-05T14:38:31;9.13;;;3.88;;
65996;SDS011;52765;52.258;21.052;2022-08-05T14:40:56;5.35;;;3.90;;
65996;SDS011;52765;52.258;21.052;2022-08-05T14:43:22;5.35;;;4.00;;
65996;SDS011;52765;52.258;21.052;2022-08-05T14:45:47;9.25;;;3.95;;
65996;SDS011;52765;52.258;21.052;2022-08-05T14:48:13;8.40;;;4.53;;
65996;SDS011;52765;52.258;21.052;2022-08-05T14:50:38;4.90;;;3.85;;
65996;SDS011;52765;52.258;21.052;2022-08-05T14:53:04;7.88;;;3.72;;
65996;SDS011;52765;52.258;21.052;2022-08-05T14:55:29;6.10;;;3.72;;
65996;SDS011;52765;52.258;21.052;2022-08-05T14:57:55;5.78;;;3.55;;
65996;SDS011;52765;52.258;21.052;2022-08-05T15:00:21;6.13;;;3.17;;
65996;SDS011;52765;52.258;21.052;2022-08-05T15:02:47;4.72;;;3.50;;
65996;SDS011;52765;52.258;21.052;2022-08-05T15:05:13;7.68;;;3.38;;
65996;SDS011;52765;52.258;21.052;2022-08-05T15:07:39;5.68;;;3.70;;
65996;SDS011;52765;52.258;21.052;2022-08-05T15:10:05;5.35;;;4.10;;
65996;SDS011;52765;52.258;21.052;2022-08-05T15:12:31;7.43;;;4.18;;
65996;SDS011;52765;52.258;21.052;2022-08-05T15:14:57;4.65;;;4.00;;